KLM1722 LXGB-LEZL
Flight info
| Callsign | KLM1722 |
|---|---|
| Flight time | 0h 46m |
| Altitude | 22000 |
| Route | PIMOS M985 MGA M744 MAR |
| Aircraft | B738/M-SDE2E3FGHIRWXY/LB1 |
Departure
| Time | 2026-04-15 14:22 |
|---|---|
| Airport | Gibraltar Airport (LXGB) |
Arrival
| Time | 2026-04-15 15:08 |
|---|---|
| Airport | Seville Airport (LEZL) |
| Time | Latitude | Longitude | Altitude | Speed | Heading |
|---|---|---|---|---|---|
| 2026-04-15 13:50 | 36.15304 | -5.34628 | 16 ft | 0 kts | 359° |
| 2026-04-15 14:14 | 36.15294 | -5.34628 | 16 ft | 3 kts | 359° |
| 2026-04-15 14:14 | 36.15274 | -5.34628 | 16 ft | 3 kts | 359° |
| 2026-04-15 14:14 | 36.15255 | -5.34627 | 16 ft | 3 kts | 343° |
| 2026-04-15 14:14 | 36.15239 | -5.34617 | 18 ft | 3 kts | 303° |
| 2026-04-15 14:15 | 36.15232 | -5.34596 | 22 ft | 5 kts | 271° |
| 2026-04-15 14:15 | 36.15233 | -5.34582 | 21 ft | 4 kts | 268° |
| 2026-04-15 14:15 | 36.15233 | -5.34561 | 19 ft | 2 kts | 268° |
| 2026-04-15 14:15 | 36.15233 | -5.34559 | 19 ft | 1 kts | 268° |
| 2026-04-15 14:18 | 36.15231 | -5.34585 | 22 ft | 8 kts | 264° |
| 2026-04-15 14:19 | 36.15219 | -5.34657 | 20 ft | 9 kts | 240° |
| 2026-04-15 14:19 | 36.15166 | -5.34686 | 21 ft | 9 kts | 197° |
| 2026-04-15 14:19 | 36.15133 | -5.34743 | 20 ft | 9 kts | 256° |
| 2026-04-15 14:19 | 36.15128 | -5.34846 | 21 ft | 17 kts | 267° |
| 2026-04-15 14:20 | 36.15121 | -5.35024 | 23 ft | 25 kts | 268° |
| 2026-04-15 14:20 | 36.15112 | -5.35269 | 23 ft | 32 kts | 266° |
| 2026-04-15 14:20 | 36.15101 | -5.35550 | 20 ft | 33 kts | 267° |
| 2026-04-15 14:20 | 36.15090 | -5.35806 | 17 ft | 23 kts | 259° |
| 2026-04-15 14:21 | 36.15076 | -5.35924 | 18 ft | 2 kts | 5° |
| 2026-04-15 14:21 | 36.15085 | -5.35906 | 17 ft | 3 kts | 68° |
| 2026-04-15 14:21 | 36.15090 | -5.35876 | 18 ft | 8 kts | 79° |
| 2026-04-15 14:21 | 36.15098 | -5.35709 | 17 ft | 46 kts | 88° |
| 2026-04-15 14:22 | 36.15120 | -5.34844 | 28 ft | 151 kts | 91° |
| 2026-04-15 14:22 | 36.15177 | -5.33311 | 705 ft | 194 kts | 89° |
| 2026-04-15 14:22 | 36.15226 | -5.31639 | 2127 ft | 202 kts | 89° |
| 2026-04-15 14:22 | 36.15215 | -5.29776 | 2932 ft | 225 kts | 89° |
| 2026-04-15 14:23 | 36.15192 | -5.27788 | 3766 ft | 238 kts | 89° |
| 2026-04-15 14:23 | 36.15169 | -5.25689 | 4618 ft | 250 kts | 89° |
| 2026-04-15 14:23 | 36.15151 | -5.23486 | 5473 ft | 262 kts | 89° |
| 2026-04-15 14:23 | 36.15136 | -5.21175 | 6330 ft | 274 kts | 89° |
| 2026-04-15 14:24 | 36.15124 | -5.18766 | 7152 ft | 286 kts | 89° |
| 2026-04-15 14:24 | 36.15113 | -5.16267 | 7961 ft | 295 kts | 89° |
| 2026-04-15 14:24 | 36.15102 | -5.13688 | 8790 ft | 305 kts | 89° |
| 2026-04-15 14:24 | 36.15093 | -5.11018 | 9606 ft | 316 kts | 88° |
| 2026-04-15 14:25 | 36.15082 | -5.08268 | 10432 ft | 324 kts | 88° |
| 2026-04-15 14:25 | 36.15072 | -5.05451 | 11216 ft | 331 kts | 88° |
| 2026-04-15 14:25 | 36.15060 | -5.02575 | 12033 ft | 337 kts | 88° |
| 2026-04-15 14:25 | 36.15049 | -4.99650 | 12862 ft | 343 kts | 88° |
| 2026-04-15 14:26 | 36.15036 | -4.96680 | 13714 ft | 347 kts | 88° |
| 2026-04-15 14:26 | 36.15026 | -4.93675 | 14519 ft | 351 kts | 86° |
| 2026-04-15 14:26 | 36.15441 | -4.90755 | 15258 ft | 350 kts | 65° |
| 2026-04-15 14:26 | 36.16750 | -4.88199 | 16085 ft | 348 kts | 45° |
| 2026-04-15 14:27 | 36.18622 | -4.86326 | 16920 ft | 347 kts | 32° |
| 2026-04-15 14:27 | 36.20633 | -4.84732 | 17748 ft | 349 kts | 30° |
| 2026-04-15 14:27 | 36.22702 | -4.83151 | 18594 ft | 350 kts | 29° |
| 2026-04-15 14:27 | 36.24784 | -4.81570 | 19340 ft | 352 kts | 29° |
| 2026-04-15 14:28 | 36.26872 | -4.79974 | 20115 ft | 353 kts | 29° |
| 2026-04-15 14:28 | 36.28958 | -4.78366 | 20906 ft | 353 kts | 29° |
| 2026-04-15 14:28 | 36.31043 | -4.76749 | 21715 ft | 353 kts | 29° |
| 2026-04-15 14:28 | 36.33119 | -4.75130 | 22538 ft | 353 kts | 29° |
| 2026-04-15 14:29 | 36.35222 | -4.73487 | 23028 ft | 363 kts | 29° |
| 2026-04-15 14:29 | 36.37407 | -4.71779 | 23202 ft | 381 kts | 29° |
| 2026-04-15 14:29 | 36.39714 | -4.69975 | 23216 ft | 402 kts | 30° |
| 2026-04-15 14:29 | 36.42135 | -4.68076 | 23219 ft | 421 kts | 30° |
| 2026-04-15 14:30 | 36.44659 | -4.66092 | 23211 ft | 437 kts | 30° |
| 2026-04-15 14:30 | 36.47271 | -4.64035 | 23207 ft | 451 kts | 30° |
| 2026-04-15 14:30 | 36.49955 | -4.61919 | 23207 ft | 464 kts | 30° |
| 2026-04-15 14:30 | 36.52709 | -4.59745 | 23202 ft | 474 kts | 30° |
| 2026-04-15 14:31 | 36.55505 | -4.57536 | 23190 ft | 477 kts | 30° |
| 2026-04-15 14:31 | 36.58298 | -4.55325 | 23179 ft | 475 kts | 30° |
| 2026-04-15 14:31 | 36.61081 | -4.53122 | 23177 ft | 474 kts | 30° |
| 2026-04-15 14:31 | 36.63858 | -4.50924 | 23177 ft | 472 kts | 30° |
| 2026-04-15 14:32 | 36.66629 | -4.48730 | 23183 ft | 472 kts | 30° |
| 2026-04-15 14:32 | 36.69395 | -4.46538 | 23184 ft | 471 kts | 30° |
| 2026-04-15 14:32 | 36.72192 | -4.44414 | 23178 ft | 469 kts | 24° |
| 2026-04-15 14:32 | 36.75268 | -4.43221 | 23192 ft | 462 kts | 5° |
| 2026-04-15 14:33 | 36.78458 | -4.43250 | 23197 ft | 457 kts | 349° |
| 2026-04-15 14:33 | 36.81500 | -4.44321 | 23185 ft | 454 kts | 335° |
| 2026-04-15 14:33 | 36.84207 | -4.46309 | 23197 ft | 452 kts | 321° |
| 2026-04-15 14:33 | 36.86462 | -4.49017 | 23181 ft | 450 kts | 307° |
| 2026-04-15 14:34 | 36.88116 | -4.52332 | 23197 ft | 450 kts | 298° |
| 2026-04-15 14:34 | 36.89568 | -4.55797 | 23188 ft | 450 kts | 297° |
| 2026-04-15 14:34 | 36.90987 | -4.59285 | 23195 ft | 450 kts | 297° |
| 2026-04-15 14:34 | 36.92408 | -4.62773 | 23185 ft | 451 kts | 297° |
| 2026-04-15 14:35 | 36.93357 | -4.65080 | 23186 ft | 451 kts | 297° |
| 2026-04-15 14:35 | 36.94798 | -4.68548 | 23083 ft | 447 kts | 297° |
| 2026-04-15 14:35 | 36.96213 | -4.71920 | 22764 ft | 428 kts | 297° |
| 2026-04-15 14:35 | 36.97576 | -4.75154 | 22472 ft | 414 kts | 298° |
| 2026-04-15 14:36 | 36.99331 | -4.79314 | 22042 ft | 405 kts | 298° |
| 2026-04-15 14:36 | 37.00632 | -4.82403 | 21545 ft | 394 kts | 298° |
| 2026-04-15 14:36 | 37.01884 | -4.85380 | 21064 ft | 379 kts | 298° |
| 2026-04-15 14:36 | 37.02700 | -4.87322 | 20745 ft | 369 kts | 298° |
| 2026-04-15 14:37 | 37.03872 | -4.90116 | 20281 ft | 356 kts | 298° |
| 2026-04-15 14:37 | 37.05006 | -4.92819 | 19818 ft | 346 kts | 299° |
| 2026-04-15 14:37 | 37.06345 | -4.95249 | 19359 ft | 335 kts | 314° |
| 2026-04-15 14:37 | 37.07945 | -4.97313 | 18928 ft | 327 kts | 315° |
| 2026-04-15 14:38 | 37.09526 | -4.99314 | 18490 ft | 320 kts | 316° |
| 2026-04-15 14:38 | 37.11079 | -5.01282 | 17992 ft | 314 kts | 316° |
| 2026-04-15 14:38 | 37.12578 | -5.03192 | 17509 ft | 309 kts | 315° |
| 2026-04-15 14:38 | 37.14069 | -5.05104 | 17029 ft | 304 kts | 315° |
| 2026-04-15 14:39 | 37.15535 | -5.06991 | 16545 ft | 300 kts | 315° |
| 2026-04-15 14:39 | 37.16982 | -5.08860 | 16075 ft | 297 kts | 315° |
| 2026-04-15 14:39 | 37.18410 | -5.10707 | 15620 ft | 294 kts | 315° |
| 2026-04-15 14:39 | 37.19824 | -5.12540 | 15161 ft | 291 kts | 315° |
| 2026-04-15 14:40 | 37.21221 | -5.14353 | 14696 ft | 287 kts | 315° |
| 2026-04-15 14:40 | 37.22603 | -5.16148 | 14260 ft | 284 kts | 315° |
| 2026-04-15 14:40 | 37.23967 | -5.17920 | 13805 ft | 281 kts | 315° |
| 2026-04-15 14:40 | 37.25324 | -5.19684 | 13304 ft | 280 kts | 315° |
| 2026-04-15 14:41 | 37.26673 | -5.21440 | 12829 ft | 279 kts | 315° |
| 2026-04-15 14:41 | 37.28019 | -5.23193 | 12354 ft | 278 kts | 315° |
| 2026-04-15 14:41 | 37.29361 | -5.24941 | 11885 ft | 278 kts | 315° |
| 2026-04-15 14:41 | 37.30698 | -5.26684 | 11421 ft | 277 kts | 315° |
| 2026-04-15 14:42 | 37.32035 | -5.28428 | 10958 ft | 276 kts | 315° |
| 2026-04-15 14:42 | 37.33364 | -5.30163 | 10515 ft | 275 kts | 315° |
| 2026-04-15 14:42 | 37.34690 | -5.31894 | 10064 ft | 275 kts | 315° |
| 2026-04-15 14:42 | 37.36013 | -5.33622 | 9576 ft | 274 kts | 315° |
| 2026-04-15 14:43 | 37.37333 | -5.35345 | 9094 ft | 273 kts | 315° |
| 2026-04-15 14:43 | 37.38645 | -5.37060 | 8616 ft | 272 kts | 315° |
| 2026-04-15 14:43 | 37.39918 | -5.38758 | 8368 ft | 271 kts | 310° |
| 2026-04-15 14:43 | 37.40738 | -5.40912 | 8239 ft | 279 kts | 283° |
| 2026-04-15 14:44 | 37.40941 | -5.43343 | 7924 ft | 280 kts | 275° |
| 2026-04-15 14:44 | 37.41056 | -5.45773 | 7598 ft | 276 kts | 275° |
| 2026-04-15 14:44 | 37.41178 | -5.48159 | 7277 ft | 271 kts | 275° |
| 2026-04-15 14:44 | 37.41306 | -5.50539 | 6832 ft | 270 kts | 275° |
| 2026-04-15 14:45 | 37.41436 | -5.52866 | 6404 ft | 268 kts | 275° |
| 2026-04-15 14:45 | 37.41569 | -5.55187 | 6267 ft | 267 kts | 275° |
| 2026-04-15 14:45 | 37.41705 | -5.57523 | 6153 ft | 268 kts | 275° |
| 2026-04-15 14:45 | 37.41926 | -5.59840 | 6024 ft | 266 kts | 288° |
| 2026-04-15 14:46 | 37.42797 | -5.61852 | 6027 ft | 262 kts | 307° |
| 2026-04-15 14:46 | 37.43770 | -5.63784 | 5993 ft | 263 kts | 289° |
| 2026-04-15 14:46 | 37.43939 | -5.66057 | 6023 ft | 264 kts | 266° |
| 2026-04-15 14:46 | 37.43706 | -5.68359 | 6011 ft | 265 kts | 262° |
| 2026-04-15 14:47 | 37.43422 | -5.70646 | 6005 ft | 265 kts | 262° |
| 2026-04-15 14:47 | 37.43456 | -5.72933 | 5991 ft | 262 kts | 287° |
| 2026-04-15 14:47 | 37.44335 | -5.74900 | 6001 ft | 260 kts | 316° |
| 2026-04-15 14:47 | 37.45855 | -5.76087 | 6009 ft | 259 kts | 341° |
| 2026-04-15 14:48 | 37.47590 | -5.76709 | 6013 ft | 260 kts | 346° |
| 2026-04-15 14:48 | 37.49353 | -5.77260 | 6007 ft | 261 kts | 346° |
| 2026-04-15 14:48 | 37.51120 | -5.77799 | 6007 ft | 262 kts | 347° |
| 2026-04-15 14:48 | 37.52883 | -5.78334 | 6004 ft | 259 kts | 347° |
| 2026-04-15 14:49 | 37.54633 | -5.78864 | 5999 ft | 258 kts | 347° |
| 2026-04-15 14:49 | 37.56381 | -5.79389 | 6001 ft | 258 kts | 348° |
| 2026-04-15 14:49 | 37.58156 | -5.79386 | 5994 ft | 258 kts | 14° |
| 2026-04-15 14:49 | 37.59841 | -5.78605 | 6008 ft | 259 kts | 22° |
| 2026-04-15 14:50 | 37.61502 | -5.77708 | 6011 ft | 261 kts | 22° |
| 2026-04-15 14:50 | 37.63170 | -5.76786 | 6013 ft | 262 kts | 23° |
| 2026-04-15 14:50 | 37.64786 | -5.75725 | 5993 ft | 263 kts | 38° |
| 2026-04-15 14:50 | 37.66055 | -5.74073 | 6023 ft | 263 kts | 47° |
| 2026-04-15 14:51 | 37.67503 | -5.72677 | 6007 ft | 264 kts | 22° |
| 2026-04-15 14:51 | 37.69281 | -5.72242 | 6009 ft | 261 kts | 355° |
| 2026-04-15 14:51 | 37.71003 | -5.72869 | 6016 ft | 258 kts | 333° |
| 2026-04-15 14:51 | 37.72375 | -5.74296 | 6004 ft | 258 kts | 305° |
| 2026-04-15 14:52 | 37.73057 | -5.76377 | 6015 ft | 259 kts | 279° |
| 2026-04-15 14:52 | 37.73083 | -5.78649 | 6025 ft | 260 kts | 268° |
| 2026-04-15 14:52 | 37.72958 | -5.80902 | 6009 ft | 260 kts | 266° |
| 2026-04-15 14:52 | 37.72814 | -5.83175 | 6018 ft | 260 kts | 266° |
| 2026-04-15 14:53 | 37.72665 | -5.85455 | 6011 ft | 260 kts | 266° |
| 2026-04-15 14:53 | 37.72516 | -5.87732 | 6002 ft | 260 kts | 266° |
| 2026-04-15 14:53 | 37.72366 | -5.90001 | 6017 ft | 259 kts | 266° |
| 2026-04-15 14:53 | 37.72217 | -5.92273 | 6005 ft | 260 kts | 266° |
| 2026-04-15 14:54 | 37.72063 | -5.94543 | 6002 ft | 260 kts | 266° |
| 2026-04-15 14:54 | 37.71908 | -5.96817 | 5998 ft | 259 kts | 266° |
| 2026-04-15 14:54 | 37.71752 | -5.99081 | 6006 ft | 259 kts | 265° |
| 2026-04-15 14:54 | 37.71286 | -6.01271 | 5864 ft | 263 kts | 243° |
| 2026-04-15 14:55 | 37.70358 | -6.03262 | 5520 ft | 261 kts | 238° |
| 2026-04-15 14:55 | 37.69395 | -6.05179 | 5170 ft | 255 kts | 238° |
| 2026-04-15 14:55 | 37.68276 | -6.06885 | 4811 ft | 251 kts | 225° |
| 2026-04-15 14:55 | 37.67030 | -6.08395 | 4459 ft | 246 kts | 222° |
| 2026-04-15 14:56 | 37.65615 | -6.09577 | 4118 ft | 244 kts | 205° |
| 2026-04-15 14:56 | 37.64064 | -6.10299 | 4024 ft | 230 kts | 200° |
| 2026-04-15 14:56 | 37.62608 | -6.10957 | 4001 ft | 214 kts | 201° |
| 2026-04-15 14:56 | 37.61230 | -6.11580 | 3994 ft | 207 kts | 201° |
| 2026-04-15 14:57 | 37.59888 | -6.12187 | 3997 ft | 204 kts | 201° |
| 2026-04-15 14:57 | 37.58534 | -6.12791 | 3843 ft | 211 kts | 200° |
| 2026-04-15 14:57 | 37.57134 | -6.13418 | 3642 ft | 214 kts | 201° |
| 2026-04-15 14:57 | 37.55752 | -6.14019 | 3445 ft | 206 kts | 200° |
| 2026-04-15 14:58 | 37.54411 | -6.14607 | 3239 ft | 202 kts | 200° |
| 2026-04-15 14:58 | 37.53099 | -6.15197 | 3067 ft | 197 kts | 200° |
| 2026-04-15 14:58 | 37.51844 | -6.15756 | 2998 ft | 186 kts | 201° |
| 2026-04-15 14:58 | 37.50642 | -6.16240 | 3003 ft | 183 kts | 187° |
| 2026-04-15 14:59 | 37.49378 | -6.16370 | 3022 ft | 180 kts | 187° |
| 2026-04-15 14:59 | 37.48164 | -6.16533 | 3000 ft | 172 kts | 184° |
| 2026-04-15 14:59 | 37.46978 | -6.16582 | 3000 ft | 170 kts | 182° |
| 2026-04-15 14:59 | 37.45812 | -6.16455 | 3001 ft | 172 kts | 157° |
| 2026-04-15 15:00 | 37.44671 | -6.15712 | 3078 ft | 200 kts | 151° |
| 2026-04-15 15:00 | 37.43627 | -6.14623 | 3098 ft | 191 kts | 128° |
| 2026-04-15 15:00 | 37.43002 | -6.13212 | 2833 ft | 185 kts | 110° |
| 2026-04-15 15:00 | 37.42613 | -6.11683 | 2528 ft | 182 kts | 103° |
| 2026-04-15 15:01 | 37.42394 | -6.10151 | 2200 ft | 177 kts | 102° |
| 2026-04-15 15:01 | 37.41894 | -6.08582 | 2504 ft | 211 kts | 129° |
| 2026-04-15 15:01 | 37.40685 | -6.07473 | 3307 ft | 212 kts | 161° |
| 2026-04-15 15:01 | 37.39224 | -6.07309 | 3901 ft | 212 kts | 189° |
| 2026-04-15 15:02 | 37.37836 | -6.07895 | 4172 ft | 213 kts | 212° |
| 2026-04-15 15:02 | 37.36738 | -6.09144 | 4290 ft | 217 kts | 239° |
| 2026-04-15 15:02 | 37.36417 | -6.10918 | 4535 ft | 214 kts | 277° |
| 2026-04-15 15:02 | 37.36748 | -6.12710 | 4562 ft | 208 kts | 287° |
| 2026-04-15 15:03 | 37.37305 | -6.14328 | 4584 ft | 196 kts | 308° |
| 2026-04-15 15:03 | 37.38345 | -6.15348 | 4309 ft | 190 kts | 338° |
| 2026-04-15 15:03 | 37.39638 | -6.15526 | 3928 ft | 190 kts | 12° |
| 2026-04-15 15:03 | 37.40733 | -6.14661 | 3573 ft | 187 kts | 52° |
| 2026-04-15 15:04 | 37.41222 | -6.13168 | 3152 ft | 186 kts | 80° |
| 2026-04-15 15:04 | 37.41429 | -6.11579 | 2775 ft | 182 kts | 80° |
| 2026-04-15 15:04 | 37.41571 | -6.10032 | 2498 ft | 174 kts | 87° |
| 2026-04-15 15:04 | 37.41600 | -6.08553 | 2263 ft | 165 kts | 90° |
| 2026-04-15 15:05 | 37.41584 | -6.07143 | 1978 ft | 158 kts | 91° |
| 2026-04-15 15:05 | 37.41596 | -6.05804 | 1778 ft | 149 kts | 88° |
| 2026-04-15 15:05 | 37.41639 | -6.04503 | 1606 ft | 150 kts | 88° |
| 2026-04-15 15:05 | 37.41689 | -6.03184 | 1533 ft | 149 kts | 88° |
| 2026-04-15 15:06 | 37.41739 | -6.00609 | 1418 ft | 151 kts | 91° |
| 2026-04-15 15:06 | 37.41720 | -5.99297 | 1294 ft | 145 kts | 90° |
| 2026-04-15 15:06 | 37.41730 | -5.98039 | 1145 ft | 145 kts | 89° |
| 2026-04-15 15:07 | 37.41750 | -5.96738 | 1011 ft | 148 kts | 88° |
| 2026-04-15 15:07 | 37.41774 | -5.95472 | 784 ft | 146 kts | 89° |
| 2026-04-15 15:07 | 37.41783 | -5.94177 | 616 ft | 151 kts | 89° |
| 2026-04-15 15:07 | 37.41784 | -5.92862 | 387 ft | 148 kts | 89° |
| 2026-04-15 15:08 | 37.41791 | -5.91579 | 185 ft | 147 kts | 90° |
| 2026-04-15 15:08 | 37.41793 | -5.90372 | 94 ft | 126 kts | 89° |
| 2026-04-15 15:08 | 37.41795 | -5.89579 | 92 ft | 65 kts | 89° |
| 2026-04-15 15:08 | 37.41798 | -5.89082 | 97 ft | 43 kts | 90° |
| 2026-04-15 15:09 | 37.41803 | -5.88831 | 102 ft | 18 kts | 73° |
| 2026-04-15 15:09 | 37.41889 | -5.88768 | 104 ft | 14 kts | 14° |
| 2026-04-15 15:09 | 37.41948 | -5.88758 | 105 ft | 6 kts | 356° |
| 2026-04-15 15:09 | 37.41979 | -5.88789 | 104 ft | 7 kts | 287° |
| 2026-04-15 15:10 | 37.41981 | -5.88909 | 100 ft | 23 kts | 268° |
| 2026-04-15 15:10 | 37.41979 | -5.89181 | 96 ft | 37 kts | 270° |
| 2026-04-15 15:10 | 37.41980 | -5.89454 | 91 ft | 29 kts | 270° |
| 2026-04-15 15:10 | 37.41980 | -5.89690 | 93 ft | 23 kts | 269° |
| 2026-04-15 15:11 | 37.41989 | -5.89858 | 94 ft | 17 kts | 297° |
| 2026-04-15 15:11 | 37.42055 | -5.89910 | 94 ft | 10 kts | 340° |
| 2026-04-15 15:11 | 37.42117 | -5.89923 | 95 ft | 9 kts | 13° |
| 2026-04-15 15:11 | 37.42170 | -5.89877 | 94 ft | 10 kts | 43° |
| 2026-04-15 15:12 | 37.42222 | -5.89814 | 93 ft | 11 kts | 38° |
| 2026-04-15 15:12 | 37.42279 | -5.89820 | 93 ft | 7 kts | 310° |
| 2026-04-15 15:12 | 37.42301 | -5.89849 | 95 ft | 1 kts | 331° |
| 2026-04-15 15:12 | 37.42303 | -5.89850 | 92 ft | 0 kts | 334° |